aviador You're here:

LFSO Decoded Metar

NANCY OCHEY in FRANCE
Report Time2018-01-19 05:00:00
UTC Time2018-01-19 05:16:30
Flight Rules vfr VFR
Wind250° at 11 kt
W.Decomp.*RWY 20: 7.1 kt HW 8.4 kt RCW
W.Rank250° ranks 7
Current wind is above 250° avg. (7.5)
Visibility9999 m
Phenomena:N/A
Clouds:Few 021 Hf
Expected CloudBase > 800 ft AGL from Temp-Dew spread
CeilingNone
Temp03°C (ISA -10)
Dew Point01°C (87% RH)
AAT-2.8°C
QNH1010 hPa
Density Alt167 ft
Elevation1,148 ft
Report Wrong Elevation
Raw Report
LFSO 190500Z AUTO 25011KT 9999 FEW021 03/01 Q1010=

Extra information for LFSO:More info

Metar Taf Metar & Taf Last 4 Metars F.Rules Stats Wind Profile Meteogram Temp Stats Airport Information Weather charts Add Link Nearby VenuesMetar ALERT Operation Metar Decoded Social comments